TimeEST,TemperatureF,Dew PointF,Humidity,Sea Level PressureIn,VisibilityMPH,Wind Direction,Wind SpeedMPH,Gust SpeedMPH,PrecipitationIn,Events,Conditions,WindDirDegrees,DateUTC
12:53 AM,42.1,36.0,79,29.92,10.0,Calm,Calm,-,N/A,,Overcast,0,2013-03-02 05:53:00
1:53 AM,39.9,36.0,86,29.91,10.0,Calm,Calm,-,N/A,,Overcast,0,2013-03-02 06:53:00
2:53 AM,37.9,34.0,86,29.90,10.0,Calm,Calm,-,N/A,,Mostly Cloudy,0,2013-03-02 07:53:00
3:53 AM,37.0,33.1,86,29.89,10.0,Calm,Calm,-,N/A,,Scattered Clouds,0,2013-03-02 08:53:00
4:53 AM,35.1,33.1,92,29.90,10.0,Calm,Calm,-,N/A,,Partly Cloudy,0,2013-03-02 09:53:00
5:53 AM,36.0,35.1,97,29.90,10.0,Calm,Calm,-,N/A,,Overcast,0,2013-03-02 10:53:00
7:53 AM,41.0,34.0,76,29.89,10.0,NNE,4.6,-,N/A,,Scattered Clouds,30,2013-03-02 12:53:00
8:53 AM,44.1,30.9,60,29.89,10.0,ENE,5.8,-,N/A,,Overcast,60,2013-03-02 13:53:00
9:53 AM,48.0,28.0,46,29.88,10.0,NE,4.6,-,N/A,,Overcast,40,2013-03-02 14:53:00
10:53 AM,48.9,30.9,50,29.88,10.0,SW,8.1,-,N/A,,Mostly Cloudy,220,2013-03-02 15:53:00
11:53 AM,48.9,33.1,54,29.87,10.0,South,9.2,-,N/A,,Mostly Cloudy,180,2013-03-02 16:53:00
12:53 PM,48.0,33.1,56,29.85,10.0,SSW,6.9,-,N/A,,Overcast,200,2013-03-02 17:53:00
1:53 PM,50.0,28.9,44,29.83,10.0,WSW,9.2,-,N/A,,Overcast,250,2013-03-02 18:53:00
2:53 PM,48.9,28.9,46,29.83,10.0,NNW,8.1,-,N/A,,Overcast,340,2013-03-02 19:53:00
3:53 PM,46.9,28.9,50,29.83,10.0,Variable,5.8,-,N/A,,Overcast,0,2013-03-02 20:53:00
4:53 PM,46.9,28.9,50,29.84,10.0,NW,4.6,-,N/A,,Overcast,310,2013-03-02 21:53:00
5:53 PM,46.0,30.9,56,29.85,10.0,Calm,Calm,-,N/A,,Overcast,0,2013-03-02 22:53:00
6:53 PM,43.0,30.9,62,29.87,10.0,Calm,Calm,-,N/A,,Partly Cloudy,0,2013-03-02 23:53:00
8:53 PM,39.0,32.0,76,29.90,10.0,Calm,Calm,-,N/A,,Clear,0,2013-03-03 01:53:00
9:53 PM,37.0,32.0,82,29.91,10.0,Calm,Calm,-,N/A,,Clear,0,2013-03-03 02:53:00
10:53 PM,36.0,33.1,89,29.91,10.0,Calm,Calm,-,N/A,,Mostly Cloudy,0,2013-03-03 03:53:00
11:53 PM,37.0,32.0,82,29.89,10.0,Variable,3.5,-,N/A,,Overcast,0,2013-03-03 04:53:00